createdAt,value
2018-12-27T00:01:50.741Z,9.80
2018-12-27T00:04:19.820Z,11.13
2018-12-27T00:06:48.912Z,10.97
2018-12-27T00:09:17.994Z,11.03
2018-12-27T00:11:47.024Z,10.17
2018-12-27T00:14:16.150Z,9.50
2018-12-27T00:16:45.221Z,10.23
2018-12-27T00:19:14.491Z,9.67
2018-12-27T00:21:43.346Z,10.10
2018-12-27T00:24:12.409Z,9.73
2018-12-27T00:26:41.475Z,9.87
2018-12-27T00:29:10.783Z,8.57
2018-12-27T00:31:39.618Z,8.70
2018-12-27T00:34:08.708Z,8.60
2018-12-27T00:36:37.808Z,9.23
2018-12-27T00:39:06.890Z,9.23
2018-12-27T00:41:35.936Z,9.07
2018-12-27T00:44:05.046Z,9.27
2018-12-27T00:46:34.109Z,10.10
2018-12-27T00:49:03.207Z,8.93
2018-12-27T00:51:32.276Z,9.73
2018-12-27T00:54:01.374Z,9.10
2018-12-27T00:56:30.452Z,8.97
2018-12-27T00:58:59.592Z,10.73
2018-12-27T01:01:28.657Z,8.43
2018-12-27T01:03:57.745Z,9.47
2018-12-27T01:06:26.847Z,9.87
2018-12-27T01:08:55.905Z,9.80
2018-12-27T01:11:24.940Z,9.63
2018-12-27T01:13:54.031Z,10.67
2018-12-27T01:16:23.062Z,10.57
2018-12-27T01:18:52.131Z,9.93
2018-12-27T01:21:21.255Z,10.27
2018-12-27T01:23:50.332Z,10.43
2018-12-27T01:26:19.377Z,10.37
2018-12-27T01:28:48.493Z,10.77
2018-12-27T01:31:17.535Z,10.60
2018-12-27T01:33:46.603Z,12.03
2018-12-27T01:36:15.666Z,12.33
2018-12-27T01:38:44.980Z,11.33
2018-12-27T01:41:13.804Z,11.97
2018-12-27T01:43:42.974Z,11.37
2018-12-27T01:46:12.014Z,11.60
2018-12-27T01:48:41.103Z,11.10
2018-12-27T01:51:10.179Z,13.63
2018-12-27T01:53:39.262Z,11.30
2018-12-27T01:56:08.295Z,11.77
2018-12-27T01:58:37.407Z,11.77
2018-12-27T02:01:06.455Z,11.17
2018-12-27T02:03:35.545Z,11.23
2018-12-27T02:06:04.617Z,11.30
2018-12-27T02:08:33.688Z,9.77
2018-12-27T02:11:02.733Z,10.47
2018-12-27T02:13:31.847Z,10.33
2018-12-27T02:16:00.896Z,11.03
2018-12-27T02:18:29.963Z,10.47
2018-12-27T02:20:59.039Z,10.07
2018-12-27T02:23:28.109Z,9.67
2018-12-27T02:25:57.143Z,9.03
2018-12-27T02:28:26.355Z,9.03
2018-12-27T02:30:55.403Z,9.70
2018-12-27T02:33:24.588Z,10.63
2018-12-27T02:35:53.636Z,9.33
2018-12-27T02:38:22.706Z,9.33
2018-12-27T02:40:51.727Z,8.33
2018-12-27T02:43:21.025Z,9.17
2018-12-27T02:45:49.848Z,8.93
2018-12-27T02:48:18.923Z,9.37
2018-12-27T02:50:48.071Z,9.03
2018-12-27T02:53:17.350Z,7.87
2018-12-27T02:55:46.174Z,8.77
2018-12-27T02:58:15.341Z,7.93
2018-12-27T03:00:44.366Z,9.00
2018-12-27T03:03:13.639Z,8.20
2018-12-27T03:05:42.520Z,7.13
2018-12-27T03:08:11.552Z,7.90
2018-12-27T03:10:40.600Z,6.47
2018-12-27T03:13:09.716Z,6.20
2018-12-27T03:15:38.746Z,5.57
2018-12-27T03:18:07.795Z,5.67
2018-12-27T03:20:36.870Z,5.63
2018-12-27T03:23:05.942Z,5.27
2018-12-27T03:25:34.947Z,5.53
2018-12-27T03:28:04.037Z,5.57
2018-12-27T03:30:33.063Z,5.70
2018-12-27T03:33:02.122Z,6.23
2018-12-27T03:35:31.233Z,5.77
2018-12-27T03:38:00.282Z,5.10
2018-12-27T03:40:29.454Z,5.50
2018-12-27T03:42:58.410Z,5.73
2018-12-27T03:45:27.447Z,5.43
2018-12-27T03:47:56.486Z,5.17
2018-12-27T03:50:25.559Z,5.70
2018-12-27T03:52:54.597Z,4.77
2018-12-27T03:55:23.645Z,5.00
2018-12-27T03:57:52.794Z,4.90
2018-12-27T04:00:21.837Z,4.40
2018-12-27T04:02:50.880Z,4.63
2018-12-27T04:05:19.949Z,4.87
2018-12-27T04:07:48.990Z,5.10
2018-12-27T04:10:18.019Z,5.40
2018-12-27T04:12:47.095Z,5.60
2018-12-27T04:15:16.149Z,4.83
2018-12-27T04:17:45.187Z,5.50
2018-12-27T04:20:14.275Z,4.40
2018-12-27T04:22:43.340Z,4.73
2018-12-27T04:25:12.379Z,3.67
2018-12-27T04:27:41.454Z,4.13
2018-12-27T04:30:10.502Z,4.37
2018-12-27T04:32:39.550Z,4.50
2018-12-27T04:35:08.622Z,4.23
2018-12-27T04:37:37.693Z,4.83
2018-12-27T04:40:06.738Z,4.90
2018-12-27T04:42:35.820Z,6.00
2018-12-27T04:45:04.863Z,5.67
2018-12-27T04:47:33.909Z,6.37
2018-12-27T04:50:02.984Z,6.93
2018-12-27T04:52:32.034Z,8.63
2018-12-27T04:55:01.341Z,7.77
2018-12-27T04:57:30.493Z,8.77
2018-12-27T04:59:59.550Z,10.40
2018-12-27T05:02:28.610Z,10.37
2018-12-27T05:04:57.737Z,11.00
2018-12-27T05:07:26.803Z,11.37
2018-12-27T05:09:55.835Z,10.53
2018-12-27T05:12:24.934Z,10.77
2018-12-27T05:14:53.969Z,10.60
2018-12-27T05:17:23.044Z,11.30
2018-12-27T05:19:52.117Z,11.83
2018-12-27T05:22:21.192Z,10.40
2018-12-27T05:24:50.238Z,10.87
2018-12-27T05:27:19.604Z,10.50
2018-12-27T05:29:48.439Z,10.53
2018-12-27T05:32:17.507Z,11.63
2018-12-27T05:34:46.809Z,10.83
2018-12-27T05:37:15.859Z,9.83
2018-12-27T05:39:44.911Z,10.50
2018-12-27T05:42:14.018Z,9.77
2018-12-27T05:44:43.112Z,9.83
2018-12-27T05:47:12.120Z,9.40
2018-12-27T05:49:41.220Z,10.43
2018-12-27T05:52:10.292Z,10.47
2018-12-27T05:54:39.336Z,10.27
2018-12-27T05:57:08.423Z,9.20
2018-12-27T05:59:37.464Z,9.17
2018-12-27T06:02:06.520Z,10.47
2018-12-27T06:04:35.602Z,10.20
2018-12-27T06:07:04.659Z,11.10
2018-12-27T06:09:33.710Z,11.40
2018-12-27T06:12:03.085Z,11.63
2018-12-27T06:14:32.168Z,12.63
2018-12-27T06:17:01.215Z,10.70
2018-12-27T06:19:30.294Z,10.83
2018-12-27T06:21:59.359Z,10.63
2018-12-27T06:24:28.397Z,10.07
2018-12-27T06:26:57.494Z,8.80
2018-12-27T06:29:26.544Z,9.53
2018-12-27T06:31:55.621Z,9.70
2018-12-27T06:34:24.708Z,8.60
2018-12-27T06:36:53.780Z,7.57
2018-12-27T06:39:22.823Z,8.33
2018-12-27T06:41:51.919Z,8.37
2018-12-27T06:44:20.941Z,8.83
2018-12-27T06:46:50.021Z,8.40
2018-12-27T06:49:19.300Z,8.77
2018-12-27T06:51:48.357Z,8.20
2018-12-27T06:54:17.407Z,7.67
2018-12-27T06:56:46.574Z,7.70
2018-12-27T06:59:15.590Z,7.57
2018-12-27T07:01:44.640Z,7.90
2018-12-27T07:04:13.712Z,7.63
2018-12-27T07:06:42.754Z,6.37
2018-12-27T07:09:11.806Z,6.37
2018-12-27T07:11:40.878Z,6.57
2018-12-27T07:14:09.919Z,5.63
2018-12-27T07:16:38.966Z,5.90
2018-12-27T07:19:08.147Z,5.67
2018-12-27T07:21:37.195Z,5.83
2018-12-27T07:24:06.251Z,5.40
2018-12-27T07:26:35.340Z,6.30
2018-12-27T07:29:04.375Z,6.33
2018-12-27T07:31:33.429Z,6.27
2018-12-27T07:34:02.509Z,6.23
2018-12-27T07:36:31.799Z,8.00
2018-12-27T07:39:00.619Z,7.00
2018-12-27T07:41:29.730Z,7.10
2018-12-27T07:43:58.839Z,6.77
2018-12-27T07:46:27.840Z,7.03
2018-12-27T07:48:56.935Z,6.40
2018-12-27T07:51:26.011Z,6.10
2018-12-27T07:53:55.033Z,7.00
2018-12-27T07:56:24.115Z,7.30
2018-12-27T07:58:53.156Z,7.43
2018-12-27T08:01:22.234Z,7.83
2018-12-27T08:03:51.310Z,7.53
2018-12-27T08:06:20.588Z,7.83
2018-12-27T08:08:49.420Z,8.80
2018-12-27T08:11:18.519Z,8.73
2018-12-27T08:13:47.565Z,10.50
2018-12-27T08:16:16.634Z,11.23
2018-12-27T08:18:45.757Z,10.30
2018-12-27T08:21:15.057Z,10.77
2018-12-27T08:23:44.117Z,9.98
2018-12-27T08:26:13.256Z,9.37
2018-12-27T08:28:42.314Z,9.40
2018-12-27T08:31:11.365Z,10.70
2018-12-27T08:33:40.452Z,11.87
2018-12-27T08:36:09.545Z,10.20
2018-12-27T08:38:38.566Z,10.23
2018-12-27T08:41:07.892Z,9.97
2018-12-27T08:43:36.703Z,9.13
2018-12-27T08:46:05.977Z,8.90
2018-12-27T08:48:35.086Z,8.67
2018-12-27T08:51:04.159Z,8.93
2018-12-27T08:53:33.191Z,8.17
2018-12-27T08:56:02.579Z,9.23
2018-12-27T08:58:31.627Z,8.43
2018-12-27T09:01:00.667Z,8.63
2018-12-27T09:03:29.753Z,16.12
2018-12-27T09:05:58.820Z,12.87
2018-12-27T09:08:27.867Z,9.67
2018-12-27T09:10:56.998Z,8.50
2018-12-27T09:13:26.040Z,9.97
2018-12-27T09:15:55.113Z,8.13
2018-12-27T09:18:24.313Z,8.23
2018-12-27T09:20:53.389Z,10.00
2018-12-27T09:23:22.446Z,6.43
2018-12-27T09:25:51.517Z,6.50
2018-12-27T09:28:20.572Z,6.70
2018-12-27T09:30:49.618Z,6.20
2018-12-27T09:33:18.716Z,6.27
2018-12-27T09:35:47.766Z,7.50
2018-12-27T09:38:16.827Z,10.83
2018-12-27T09:40:45.901Z,8.50
2018-12-27T09:43:14.947Z,7.87
2018-12-27T09:45:43.994Z,11.60
2018-12-27T09:48:13.074Z,12.07
2018-12-27T09:50:42.119Z,9.77
2018-12-27T09:53:11.154Z,9.73
2018-12-27T09:55:40.604Z,10.70
2018-12-27T09:58:09.654Z,17.03
2018-12-27T10:00:39.869Z,25.60
2018-12-27T10:03:07.788Z,21.53
2018-12-27T10:05:36.844Z,13.17
2018-12-27T10:08:05.896Z,14.60
2018-12-27T10:10:35.305Z,12.80
2018-12-27T10:13:04.363Z,14.40
2018-12-27T10:15:33.436Z,13.73
2018-12-27T10:18:02.746Z,13.40
2018-12-27T10:20:31.800Z,9.57
2018-12-27T10:23:00.857Z,10.97
2018-12-27T10:25:29.948Z,10.17
2018-12-27T10:27:59.008Z,9.70
2018-12-27T10:30:28.058Z,9.27
2018-12-27T10:32:57.135Z,9.90
2018-12-27T10:35:26.193Z,10.20
2018-12-27T10:37:55.260Z,7.30
2018-12-27T10:40:24.353Z,7.97
2018-12-27T10:42:53.392Z,7.33
2018-12-27T10:45:22.442Z,8.47
2018-12-27T10:47:51.516Z,7.60
2018-12-27T10:50:20.579Z,10.47
2018-12-27T10:52:49.636Z,10.87
2018-12-27T10:55:18.826Z,12.50
2018-12-27T10:57:47.879Z,12.23
2018-12-27T11:00:16.931Z,17.03
2018-12-27T11:02:46.049Z,13.63
2018-12-27T11:05:15.391Z,10.57
2018-12-27T11:07:44.464Z,15.13
2018-12-27T11:10:13.550Z,14.90
2018-12-27T11:12:42.608Z,13.07
2018-12-27T11:15:11.677Z,14.03
2018-12-27T11:17:40.761Z,10.37
2018-12-27T11:20:09.814Z,8.07
2018-12-27T11:22:38.869Z,7.20
2018-12-27T11:25:07.968Z,8.77
2018-12-27T11:27:37.021Z,13.00
2018-12-27T11:30:06.079Z,9.90
2018-12-27T11:32:35.160Z,10.87
2018-12-27T11:35:04.211Z,9.20
2018-12-27T11:37:33.299Z,8.70
2018-12-27T11:40:02.387Z,8.17
2018-12-27T11:42:31.455Z,9.23
2018-12-27T11:45:00.509Z,8.43
2018-12-27T11:47:29.592Z,9.97
2018-12-27T11:49:58.787Z,8.07
2018-12-27T11:52:27.855Z,8.50
2018-12-27T11:54:56.959Z,8.03
2018-12-27T11:57:26.016Z,8.87
2018-12-27T11:59:55.074Z,9.43
2018-12-27T12:02:30.897Z,8.03
2018-12-27T12:04:53.228Z,7.60
2018-12-27T12:07:22.297Z,12.13
2018-12-27T12:09:51.401Z,8.63
2018-12-27T12:12:20.449Z,6.43
2018-12-27T12:14:49.527Z,7.07
2018-12-27T12:17:18.600Z,8.67
2018-12-27T12:19:47.668Z,13.03
2018-12-27T12:22:16.732Z,19.80
2018-12-27T12:24:45.826Z,19.70
2018-12-27T12:27:14.880Z,20.53
2018-12-27T12:29:44.290Z,13.37
2018-12-27T12:32:13.407Z,12.30
2018-12-27T12:34:42.453Z,15.13
2018-12-27T12:37:14.212Z,15.17
2018-12-27T12:39:40.582Z,14.93
2018-12-27T12:42:09.638Z,17.53
2018-12-27T12:44:38.696Z,11.83
2018-12-27T12:47:07.777Z,8.73
2018-12-27T12:49:36.816Z,8.53
2018-12-27T12:52:05.872Z,11.33
2018-12-27T12:54:34.980Z,13.47
2018-12-27T12:57:04.032Z,10.40
2018-12-27T12:59:33.082Z,14.60
2018-12-27T13:02:02.172Z,16.33
2018-12-27T13:04:31.225Z,17.53
2018-12-27T13:07:00.505Z,43.73
2018-12-27T13:09:30.341Z,21.27
2018-12-27T13:11:59.387Z,23.13
2018-12-27T13:14:28.445Z,21.80
2018-12-27T13:16:57.678Z,22.00
2018-12-27T13:19:26.733Z,19.37
2018-12-27T13:21:55.793Z,20.67
2018-12-27T13:24:24.874Z,25.80
2018-12-27T13:26:53.932Z,17.85
2018-12-27T13:29:22.991Z,19.73
2018-12-27T13:31:52.100Z,21.93
2018-12-27T13:34:21.158Z,18.53
2018-12-27T13:36:50.235Z,17.98
2018-12-27T13:39:19.320Z,19.23
2018-12-27T13:41:48.407Z,28.40
2018-12-27T13:44:17.463Z,56.77
2018-12-27T13:46:46.577Z,18.87
2018-12-27T13:49:15.615Z,30.93
2018-12-27T13:51:44.654Z,25.92
2018-12-27T13:54:13.784Z,22.83
2018-12-27T13:56:42.851Z,19.67
2018-12-27T13:59:11.914Z,18.23
2018-12-27T14:01:41.044Z,36.53
2018-12-27T14:04:10.117Z,37.13
2018-12-27T14:06:39.176Z,20.73
2018-12-27T14:09:08.261Z,23.97
2018-12-27T14:11:37.334Z,23.40
2018-12-27T14:14:06.387Z,36.40
2018-12-27T14:16:35.489Z,30.93
2018-12-27T14:19:04.525Z,23.58
2018-12-27T14:21:33.611Z,15.70
2018-12-27T14:24:02.878Z,17.77
2018-12-27T14:26:31.916Z,26.50
2018-12-27T14:29:00.997Z,17.73
2018-12-27T14:31:30.062Z,15.57
2018-12-27T14:33:59.110Z,15.23
2018-12-27T14:36:45.014Z,18.17
2018-12-27T14:39:14.072Z,17.87
2018-12-27T14:41:43.140Z,27.83
2018-12-27T14:44:12.239Z,24.90
2018-12-27T14:46:41.294Z,21.03
2018-12-27T14:49:10.361Z,25.90
2018-12-27T14:51:39.438Z,25.17
2018-12-27T14:54:08.493Z,22.57
2018-12-27T14:56:37.547Z,19.07
2018-12-27T14:59:06.883Z,22.27
2018-12-27T15:01:35.941Z,20.47
2018-12-27T15:04:04.997Z,23.23
2018-12-27T15:06:34.135Z,25.57
2018-12-27T15:09:03.199Z,22.00
2018-12-27T15:11:32.250Z,15.68
2018-12-27T15:14:01.317Z,15.33
2018-12-27T15:16:30.370Z,15.40
2018-12-27T15:18:59.427Z,15.23
2018-12-27T15:21:28.533Z,16.43
2018-12-27T15:23:57.584Z,18.23
2018-12-27T15:26:26.649Z,26.40
2018-12-27T15:28:55.764Z,21.60
2018-12-27T15:31:24.828Z,15.80
2018-12-27T15:33:53.894Z,13.73
2018-12-27T15:36:22.979Z,13.37
2018-12-27T15:38:52.045Z,14.13
2018-12-27T15:41:21.104Z,14.67
2018-12-27T15:43:50.192Z,11.30
2018-12-27T15:46:19.262Z,14.20
2018-12-27T15:48:48.323Z,11.60
2018-12-27T15:51:17.454Z,12.03
2018-12-27T15:53:46.511Z,9.73
2018-12-27T15:56:15.566Z,9.17
2018-12-27T15:58:44.646Z,12.03
2018-12-27T16:01:13.694Z,12.60
2018-12-27T16:03:42.761Z,17.57
2018-12-27T16:06:11.848Z,12.33
2018-12-27T16:08:40.906Z,12.97
2018-12-27T16:11:09.956Z,12.30
2018-12-27T16:13:39.162Z,14.10
2018-12-27T16:16:08.246Z,11.53
2018-12-27T16:18:37.304Z,16.03
2018-12-27T16:21:06.391Z,18.27
2018-12-27T16:23:35.725Z,11.73
2018-12-27T16:26:04.783Z,12.97
2018-12-27T16:28:33.867Z,14.93
2018-12-27T16:31:02.933Z,13.80
2018-12-27T16:33:31.981Z,13.00
2018-12-27T16:36:01.122Z,14.53
2018-12-27T16:38:30.179Z,24.10
2018-12-27T16:40:59.246Z,18.73
2018-12-27T16:43:28.316Z,20.03
2018-12-27T16:45:57.373Z,19.40
2018-12-27T16:48:26.435Z,22.27
2018-12-27T16:50:55.519Z,20.80
2018-12-27T16:53:24.572Z,18.87
2018-12-27T16:55:53.628Z,20.30
2018-12-27T16:58:23.995Z,23.33
2018-12-27T17:00:52.957Z,17.03
2018-12-27T17:03:22.025Z,18.77
2018-12-27T17:05:51.117Z,16.87
2018-12-27T17:08:20.218Z,21.20
2018-12-27T17:10:49.263Z,27.03
2018-12-27T17:13:18.440Z,21.80
2018-12-27T17:15:47.505Z,13.23
2018-12-27T17:18:16.577Z,16.83
2018-12-27T17:20:45.799Z,14.13
2018-12-27T17:23:14.879Z,17.77
2018-12-27T17:25:44.089Z,19.13
2018-12-27T17:28:14.082Z,18.37
2018-12-27T17:30:43.183Z,22.47
2018-12-27T17:33:13.395Z,16.07
2018-12-27T17:35:43.638Z,17.03
2018-12-27T17:38:12.730Z,14.60
2018-12-27T17:40:42.200Z,15.33
2018-12-27T17:43:11.456Z,14.57
2018-12-27T17:45:40.635Z,15.67
2018-12-27T17:48:09.780Z,15.67
2018-12-27T17:50:39.013Z,18.63
2018-12-27T17:53:09.681Z,17.57
2018-12-27T17:55:37.654Z,15.07
2018-12-27T17:58:06.790Z,13.73
2018-12-27T18:00:35.939Z,14.83
2018-12-27T18:03:06.207Z,13.50
2018-12-27T18:05:35.903Z,14.37
2018-12-27T18:08:05.297Z,14.73
2018-12-27T18:10:34.224Z,15.57
2018-12-27T18:13:03.437Z,15.83
2018-12-27T18:15:32.841Z,21.40
2018-12-27T18:18:01.813Z,16.70
2018-12-27T18:20:31.013Z,18.80
2018-12-27T18:23:00.377Z,21.30
2018-12-27T18:25:29.379Z,22.57
2018-12-27T18:27:58.667Z,32.00
2018-12-27T18:30:27.713Z,26.37
2018-12-27T18:32:56.821Z,21.40
2018-12-27T18:35:25.892Z,32.27
2018-12-27T18:37:55.055Z,26.53
2018-12-27T18:40:24.025Z,23.13
2018-12-27T18:42:53.119Z,30.33
2018-12-27T18:45:22.166Z,30.70
2018-12-27T18:47:51.236Z,19.57
2018-12-27T18:50:20.349Z,18.27
2018-12-27T18:52:50.390Z,22.83
2018-12-27T18:55:20.251Z,41.53
2018-12-27T18:57:48.532Z,26.20
2018-12-27T19:00:17.594Z,22.13
2018-12-27T19:02:46.691Z,21.13
2018-12-27T19:05:16.005Z,20.70
2018-12-27T19:07:45.272Z,27.43
2018-12-27T19:10:14.000Z,23.93
2018-12-27T19:12:58.541Z,19.13
2018-12-27T19:15:27.590Z,18.17
2018-12-27T19:17:56.666Z,15.60
2018-12-27T19:20:25.752Z,15.80
2018-12-27T19:22:54.816Z,14.90
2018-12-27T19:25:23.888Z,13.97
2018-12-27T19:27:53.190Z,17.87
2018-12-27T19:30:22.253Z,18.33
2018-12-27T19:32:51.320Z,13.60
2018-12-27T19:35:20.405Z,14.20
2018-12-27T19:37:52.206Z,12.60
2018-12-27T19:40:18.533Z,12.73
2018-12-27T19:42:47.647Z,14.53
2018-12-27T19:45:16.728Z,13.17
2018-12-27T19:47:45.776Z,13.90
2018-12-27T19:50:14.885Z,14.10
2018-12-27T19:52:43.958Z,11.63
2018-12-27T19:55:13.022Z,14.63
2018-12-27T19:57:42.110Z,16.70
2018-12-27T20:00:11.168Z,18.27
2018-12-27T20:02:41.278Z,14.10
2018-12-27T20:05:11.254Z,12.87
2018-12-27T20:07:40.379Z,14.00
2018-12-27T20:10:09.528Z,13.30
2018-12-27T20:12:38.723Z,13.80
2018-12-27T20:15:07.845Z,13.00
2018-12-27T20:17:37.064Z,12.77
2018-12-27T20:20:06.294Z,12.47
2018-12-27T20:22:36.437Z,12.37
2018-12-27T20:25:05.669Z,12.23
2018-12-27T20:27:34.855Z,10.63
2018-12-27T20:30:03.996Z,12.40
2018-12-27T20:32:33.089Z,10.00
2018-12-27T20:35:02.184Z,10.57
2018-12-27T20:37:31.444Z,9.27
2018-12-27T20:40:00.598Z,8.77
2018-12-27T20:42:29.749Z,8.37
2018-12-27T20:44:58.905Z,10.40
2018-12-27T20:47:27.996Z,7.80
2018-12-27T20:49:57.169Z,9.43
2018-12-27T20:52:26.228Z,8.83
2018-12-27T20:54:55.288Z,10.40
2018-12-27T20:57:24.446Z,7.57
2018-12-27T20:59:53.477Z,10.17
2018-12-27T21:02:22.765Z,10.93
2018-12-27T21:04:51.631Z,7.83
2018-12-27T21:07:21.054Z,9.67
2018-12-27T21:09:50.013Z,8.30
2018-12-27T21:12:19.183Z,7.00
2018-12-27T21:14:48.253Z,10.67
2018-12-27T21:17:17.337Z,8.67
2018-12-27T21:19:46.445Z,8.67
2018-12-27T21:22:15.573Z,8.27
2018-12-27T21:24:44.650Z,7.23
2018-12-27T21:27:14.114Z,7.70
2018-12-27T21:29:43.178Z,7.80
2018-12-27T21:32:12.286Z,10.43
2018-12-27T21:34:41.399Z,8.97
2018-12-27T21:37:10.468Z,10.20
2018-12-27T21:39:39.640Z,9.80
2018-12-27T21:42:08.756Z,7.80
2018-12-27T21:44:37.849Z,10.25
2018-12-27T21:47:06.922Z,7.37
2018-12-27T21:49:36.013Z,9.23
2018-12-27T21:52:05.085Z,12.43
2018-12-27T21:54:34.184Z,8.47
2018-12-27T21:57:03.283Z,8.93
2018-12-27T21:59:32.379Z,8.25
2018-12-27T22:02:01.458Z,9.90
2018-12-27T22:04:30.557Z,6.67
2018-12-27T22:06:59.617Z,9.50
2018-12-27T22:09:28.702Z,7.43
2018-12-27T22:11:57.845Z,6.57
2018-12-27T22:14:26.934Z,6.67
2018-12-27T22:16:56.035Z,6.10
2018-12-27T22:19:25.172Z,5.37
2018-12-27T22:21:54.233Z,5.13
2018-12-27T22:24:23.309Z,5.87
2018-12-27T22:26:52.411Z,5.30
2018-12-27T22:29:21.465Z,7.25
2018-12-27T22:31:50.952Z,6.13
2018-12-27T22:34:19.637Z,4.72
2018-12-27T22:36:48.700Z,5.70
2018-12-27T22:39:17.758Z,5.60
2018-12-27T22:41:47.102Z,5.50
2018-12-27T22:44:16.182Z,8.43
2018-12-27T22:46:45.236Z,6.13
2018-12-27T22:49:14.331Z,5.80
2018-12-27T22:51:43.363Z,5.20
2018-12-27T22:54:12.473Z,5.95
2018-12-27T22:56:41.531Z,5.47
2018-12-27T22:59:10.587Z,6.03
2018-12-27T23:01:39.655Z,5.93
2018-12-27T23:04:08.937Z,5.63
2018-12-27T23:06:38.013Z,5.30
2018-12-27T23:09:07.068Z,4.70
2018-12-27T23:11:36.154Z,5.60
2018-12-27T23:14:05.234Z,5.67
2018-12-27T23:16:34.286Z,5.23
2018-12-27T23:19:03.373Z,5.32
2018-12-27T23:21:32.432Z,4.53
2018-12-27T23:24:01.480Z,5.03
2018-12-27T23:26:30.598Z,5.17
2018-12-27T23:28:59.645Z,4.80
2018-12-27T23:31:28.709Z,5.07
2018-12-27T23:33:57.794Z,4.53
2018-12-27T23:36:26.831Z,4.67
2018-12-27T23:38:55.902Z,3.77
2018-12-27T23:41:25.142Z,3.97
2018-12-27T23:43:54.206Z,4.83
2018-12-27T23:46:23.288Z,3.77
2018-12-27T23:48:52.872Z,3.40
2018-12-27T23:51:21.926Z,3.50
2018-12-27T23:53:50.982Z,3.33
2018-12-27T23:56:20.076Z,3.77
2018-12-27T23:58:49.117Z,3.83
